Terminal Aerodrome Forecast
Issued by NWS

Home | Current Version | Previous Version | Text Only | Print | Product List | Glossary On
Versions: 1 2 3 4 5 6 7 8 9 10 11 12 13 14 15 16 17 18 19 20 21 22 23 24 25 26 27 28 29 30 31
762
FTUS42 KCAE 212335
TAFOGB
TAF
KOGB 212335Z 2200/2224 16012KT P6SM SCT020 BKN100
     FM220300 19006KT 5SM BR SCT008 BKN015
     FM220900 21006KT 1SM TSRA BR OVC004CB
     FM221500 22012KT 3SM BR VCTS BKN015CB
     FM222100 20012G20KT 5SM TSRA BR SCT015 BKN035CB=

USA.gov is the U.S. government's official web portal to all federal, state and local government web resources and services.